Time;durP1;ratioP1;P1;durP2;ratioP2;P2;SDS_P1;SDS_P2;PMS_P1;PMS_P2;Temp;Humidity;BMP_temperature;BMP_pressure;BME280_temperature;BME280_humidity;BME280_pressure;Samples;Min_cycle;Max_cycle;Signal;HPM_P1;HPM_P2
2022/11/08 00:01:35;;;;;;;12.75;3.10;;;12.90;99.90;;;;;;4964084;28;20058;-72
2022/11/08 00:04:09;;;;;;;14.15;3.15;;;12.90;99.90;;;;;;4966385;28;20134;-72
2022/11/08 00:14:50;;;;;;;14.75;3.40;;;12.90;99.90;;;;;;4980248;28;20054;-72
2022/11/08 00:17:17;;;;;;;15.15;3.25;;;12.90;99.90;;;;;;4973297;28;20388;-72
2022/11/08 00:19:44;;;;;;;14.57;3.30;;;12.90;99.90;;;;;;4972720;28;20046;-72
2022/11/08 00:22:11;;;;;;;11.30;2.92;;;12.90;99.90;;;;;;4973809;28;20055;-73
2022/11/08 00:24:37;;;;;;;10.95;2.90;;;12.90;99.90;;;;;;4989796;28;20126;-72
2022/11/08 00:27:04;;;;;;;11.63;3.35;;;12.90;99.90;;;;;;4973616;28;20047;-72
2022/11/08 00:29:30;;;;;;;12.70;3.03;;;12.90;99.90;;;;;;4973591;28;20058;-73
2022/11/08 00:31:56;;;;;;;12.60;3.00;;;12.90;99.90;;;;;;4973201;28;20506;-72
2022/11/08 00:34:21;;;;;;;10.50;3.05;;;12.80;99.90;;;;;;4973700;28;20061;-72
2022/11/08 00:36:47;;;;;;;13.48;3.00;;;12.90;99.90;;;;;;4973272;28;20097;-72
2022/11/08 00:39:13;;;;;;;12.73;3.20;;;12.90;99.90;;;;;;4973446;28;20054;-72
2022/11/08 00:41:38;;;;;;;13.52;3.58;;;12.90;99.90;;;;;;4973346;28;20058;-72
2022/11/08 00:44:04;;;;;;;13.02;3.40;;;12.70;99.90;;;;;;4973174;28;20494;-72
2022/11/08 00:46:30;;;;;;;12.38;2.85;;;12.80;99.90;;;;;;4973556;28;20129;-72
2022/11/08 00:48:56;;;;;;;12.23;3.20;;;12.80;99.90;;;;;;4973871;28;20082;-72
2022/11/08 00:51:21;;;;;;;13.90;3.28;;;12.70;99.90;;;;;;4974436;28;20080;-72
2022/11/08 00:53:47;;;;;;;12.45;3.20;;;12.70;99.90;;;;;;4972745;28;20131;-72
2022/11/08 00:56:13;;;;;;;13.32;3.47;;;12.70;99.90;;;;;;4974435;28;20544;-72
2022/11/08 00:58:40;;;;;;;13.07;3.30;;;12.70;99.90;;;;;;4973098;28;20051;-72
2022/11/08 01:01:15;;;;;;;14.60;3.50;;;12.60;99.90;;;;;;4973349;28;20197;-72
2022/11/08 01:03:41;;;;;;;13.77;3.53;;;12.60;99.90;;;;;;4968217;28;20051;-72
2022/11/08 01:06:09;;;;;;;15.32;3.33;;;12.50;99.90;;;;;;4964961;28;20050;-72
2022/11/08 01:08:35;;;;;;;16.77;3.58;;;12.50;99.90;;;;;;4972739;28;20059;-72
2022/11/08 01:11:05;;;;;;;15.43;3.40;;;12.50;99.90;;;;;;4972725;28;20553;-72
2022/11/08 01:13:31;;;;;;;12.73;3.33;;;12.40;99.90;;;;;;4988726;28;20061;-72
2022/11/08 01:15:56;;;;;;;14.90;3.30;;;12.40;99.90;;;;;;4956914;28;20050;-73
2022/11/08 01:18:23;;;;;;;10.70;3.08;;;12.40;99.90;;;;;;4956001;28;20066;-72
2022/11/08 01:20:49;;;;;;;15.45;3.30;;;12.40;99.90;;;;;;4973083;28;20055;-72
2022/11/08 01:23:16;;;;;;;11.05;2.97;;;12.30;99.90;;;;;;4989118;28;20046;-72
2022/11/08 01:25:45;;;;;;;10.63;3.10;;;12.30;99.90;;;;;;4962335;28;20051;-73
2022/11/08 01:28:11;;;;;;;13.25;3.25;;;12.20;99.90;;;;;;4969807;28;20133;-72
2022/11/08 01:30:42;;;;;;;12.82;3.17;;;12.20;99.90;;;;;;4972528;28;20058;-73
2022/11/08 01:33:08;;;;;;;13.02;3.53;;;12.20;99.90;;;;;;4974519;28;20548;-72
2022/11/08 01:35:34;;;;;;;15.63;3.58;;;12.10;99.90;;;;;;4976672;28;20555;-72
2022/11/08 01:38:01;;;;;;;14.38;3.20;;;12.10;99.90;;;;;;4976644;28;20055;-72
2022/11/08 01:40:27;;;;;;;17.27;3.70;;;12.10;99.90;;;;;;4976228;28;20073;-72
2022/11/08 01:42:53;;;;;;;13.43;3.35;;;12.00;99.90;;;;;;4976508;28;20142;-73
2022/11/08 01:45:56;;;;;;;11.18;3.05;;;12.00;99.90;;;;;;4960388;28;20113;-72
2022/11/08 01:48:23;;;;;;;12.27;3.22;;;12.00;99.90;;;;;;4960935;28;20138;-72
2022/11/08 01:50:50;;;;;;;12.32;3.20;;;11.90;99.90;;;;;;4960696;28;20109;-73
2022/11/08 01:53:17;;;;;;;14.23;3.40;;;11.90;99.90;;;;;;4976352;28;20053;-73
2022/11/08 01:55:42;;;;;;;13.38;3.22;;;12.00;99.90;;;;;;4992195;28;20051;-72
2022/11/08 01:58:21;;;;;;;11.32;3.33;;;11.90;99.90;;;;;;4975463;28;20061;-72
2022/11/08 02:00:47;;;;;;;14.30;3.40;;;11.90;99.90;;;;;;4972557;28;20047;-72
2022/11/08 02:03:16;;;;;;;12.70;3.28;;;11.90;99.90;;;;;;4968723;28;20460;-73
2022/11/08 02:05:43;;;;;;;13.02;3.47;;;11.90;99.90;;;;;;4988917;28;20042;-73
2022/11/08 02:08:12;;;;;;;12.00;3.20;;;11.90;99.90;;;;;;4975754;28;20059;-73
2022/11/08 02:10:40;;;;;;;11.30;3.03;;;11.90;99.90;;;;;;4976130;28;20047;-72
2022/11/08 02:13:14;;;;;;;10.95;2.95;;;12.00;99.90;;;;;;4975272;28;20122;-72
2022/11/08 02:15:40;;;;;;;10.02;2.97;;;12.00;99.90;;;;;;4976225;28;20487;-73
2022/11/08 02:18:06;;;;;;;11.82;3.50;;;12.00;99.90;;;;;;4974486;28;20059;-73
2022/11/08 02:20:33;;;;;;;13.80;3.25;;;12.00;99.90;;;;;;4970925;28;20051;-73
2022/11/08 02:23:25;;;;;;;13.07;3.35;;;12.00;99.90;;;;;;4968577;28;20121;-72
2022/11/08 02:25:51;;;;;;;12.15;3.20;;;12.00;99.90;;;;;;4964296;28;20047;-72
2022/11/08 02:28:17;;;;;;;13.25;3.40;;;12.00;99.90;;;;;;4955833;28;20055;-73
2022/11/08 02:30:43;;;;;;;11.20;3.03;;;12.00;99.90;;;;;;4959665;28;20058;-72
2022/11/08 02:33:17;;;;;;;13.05;3.20;;;12.00;99.90;;;;;;4974250;28;20051;-73
2022/11/08 02:35:49;;;;;;;13.90;3.50;;;12.00;99.90;;;;;;4963127;28;20046;-72
2022/11/08 02:38:15;;;;;;;10.00;3.05;;;11.90;99.90;;;;;;4959562;28;20046;-72
2022/11/08 02:40:53;;;;;;;11.13;3.03;;;11.90;99.90;;;;;;4991726;28;20057;-72
2022/11/08 02:43:20;;;;;;;11.65;3.20;;;11.90;99.90;;;;;;4974580;28;20063;-72
2022/11/08 02:45:46;;;;;;;11.32;3.10;;;11.90;99.90;;;;;;4961406;28;20046;-72
2022/11/08 02:48:12;;;;;;;13.40;3.25;;;11.90;99.90;;;;;;4974765;28;20067;-72
2022/11/08 02:50:38;;;;;;;14.15;3.25;;;11.80;99.90;;;;;;4975031;28;20407;-73
2022/11/08 02:53:04;;;;;;;10.35;2.97;;;12.10;99.90;;;;;;4967666;28;20106;-72
2022/11/08 02:55:30;;;;;;;12.60;3.10;;;11.80;99.90;;;;;;4953018;28;20120;-72
2022/11/08 02:57:56;;;;;;;13.20;2.80;;;11.80;99.90;;;;;;4990799;28;20051;-72
2022/11/08 03:00:22;;;;;;;12.00;3.10;;;11.80;99.90;;;;;;4966990;28;20055;-72
2022/11/08 03:02:52;;;;;;;14.02;2.90;;;11.80;99.90;;;;;;4973698;28;20077;-73
2022/11/08 03:05:18;;;;;;;11.20;3.20;;;11.80;99.90;;;;;;4958703;28;20047;-72
2022/11/08 03:07:44;;;;;;;13.65;3.08;;;11.70;99.90;;;;;;4974292;28;20113;-73
2022/11/08 03:10:10;;;;;;;11.65;3.00;;;11.70;99.90;;;;;;4990967;28;20494;-72
2022/11/08 03:12:37;;;;;;;11.70;3.10;;;11.70;99.90;;;;;;4991055;28;20141;-73
2022/11/08 03:15:04;;;;;;;11.13;3.30;;;11.70;99.90;;;;;;4974659;28;20414;-72
2022/11/08 03:17:30;;;;;;;11.75;3.03;;;11.70;99.90;;;;;;4974789;28;20134;-72
2022/11/08 03:19:55;;;;;;;12.88;3.08;;;11.60;99.90;;;;;;4975087;28;20483;-72
2022/11/08 03:22:22;;;;;;;10.65;3.00;;;11.60;99.90;;;;;;4975027;28;20513;-72
2022/11/08 03:24:47;;;;;;;13.73;3.33;;;11.60;99.90;;;;;;4974619;28;20050;-72
2022/11/08 03:27:14;;;;;;;10.95;3.05;;;11.60;99.90;;;;;;4974739;28;20506;-72
2022/11/08 03:29:40;;;;;;;11.45;2.95;;;11.60;99.90;;;;;;4974244;28;20518;-72
2022/11/08 03:32:06;;;;;;;10.32;3.00;;;11.50;99.90;;;;;;4958268;28;20051;-72
2022/11/08 03:34:32;;;;;;;11.63;3.10;;;11.60;99.90;;;;;;4973644;28;20053;-73
2022/11/08 03:36:58;;;;;;;14.20;3.20;;;11.50;99.90;;;;;;4974298;28;20164;-72
2022/11/08 03:39:23;;;;;;;9.85;3.10;;;11.50;99.90;;;;;;4974360;28;20368;-72
2022/11/08 03:41:49;;;;;;;9.90;2.88;;;11.50;99.90;;;;;;4973968;28;20058;-72
2022/11/08 03:44:15;;;;;;;10.43;2.90;;;11.50;99.90;;;;;;4953923;28;20050;-72
2022/11/08 03:46:40;;;;;;;11.52;2.97;;;11.50;99.90;;;;;;4974273;28;20372;-72
2022/11/08 03:49:06;;;;;;;10.57;2.95;;;11.50;99.90;;;;;;4974659;28;20101;-73
2022/11/08 03:51:32;;;;;;;11.50;2.97;;;11.50;99.90;;;;;;4986913;28;20150;-72
2022/11/08 03:53:57;;;;;;;13.77;2.90;;;11.50;99.90;;;;;;4970499;28;20475;-72
2022/11/08 03:56:23;;;;;;;11.52;2.88;;;11.40;99.90;;;;;;4990110;28;20042;-72
2022/11/08 03:58:49;;;;;;;14.35;3.20;;;11.40;99.90;;;;;;4959204;28;20043;-73
2022/11/08 04:01:15;;;;;;;9.43;2.83;;;11.40;99.90;;;;;;4990501;28;20059;-72
2022/11/08 04:03:40;;;;;;;9.35;2.90;;;11.40;99.90;;;;;;4974440;28;20105;-72
2022/11/08 04:06:07;;;;;;;15.10;3.28;;;11.40;99.90;;;;;;4958053;28;20047;-73
2022/11/08 04:08:32;;;;;;;14.65;3.10;;;11.40;99.90;;;;;;4990014;28;20050;-72
2022/11/08 04:16:30;;;;;;;13.30;2.80;;;11.50;99.90;;;;;;4973147;28;20448;-72
2022/11/08 04:21:44;;;;;;;11.02;2.70;;;11.40;99.90;;;;;;4990013;28;20050;-72
2022/11/08 04:24:09;;;;;;;10.55;3.03;;;11.40;99.90;;;;;;4989952;28;20118;-72
2022/11/08 04:26:35;;;;;;;12.77;3.13;;;11.40;99.90;;;;;;4985134;28;20480;-72
2022/11/08 04:29:04;;;;;;;12.07;3.30;;;11.50;99.90;;;;;;4965418;28;20050;-72
2022/11/08 04:31:29;;;;;;;12.02;2.80;;;11.40;99.90;;;;;;4974678;28;20561;-72
2022/11/08 04:33:55;;;;;;;11.80;3.15;;;11.40;99.90;;;;;;4988535;28;20051;-72
2022/11/08 04:36:21;;;;;;;10.15;2.70;;;11.50;99.90;;;;;;4988735;28;20085;-72
2022/11/08 04:38:48;;;;;;;9.27;3.00;;;11.50;99.90;;;;;;4960496;28;20054;-72
2022/11/08 04:41:16;;;;;;;9.63;3.10;;;11.50;99.90;;;;;;4989321;28;20061;-72
2022/11/08 04:43:41;;;;;;;10.05;2.80;;;11.50;99.90;;;;;;4989571;28;20078;-72
2022/11/08 04:46:12;;;;;;;11.45;3.15;;;11.40;99.90;;;;;;4957649;28;20138;-72
2022/11/08 04:48:38;;;;;;;10.52;3.17;;;11.40;99.90;;;;;;4942556;28;20495;-72
2022/11/08 04:51:10;;;;;;;11.60;3.20;;;11.50;99.90;;;;;;4964056;28;20078;-71
2022/11/08 04:53:36;;;;;;;11.55;3.40;;;11.50;99.90;;;;;;4967531;28;20046;-72
2022/11/08 04:56:11;;;;;;;12.75;3.65;;;11.50;99.90;;;;;;4961301;28;20399;-72
2022/11/08 04:58:39;;;;;;;10.10;3.40;;;11.40;99.90;;;;;;4988892;28;20054;-72
2022/11/08 05:01:06;;;;;;;11.35;3.30;;;11.40;99.90;;;;;;4989593;28;20059;-72
2022/11/08 05:03:33;;;;;;;11.32;3.60;;;11.40;99.90;;;;;;4988582;28;20125;-72
2022/11/08 05:06:04;;;;;;;13.05;3.58;;;11.40;99.90;;;;;;4973229;28;20106;-72
2022/11/08 05:08:30;;;;;;;11.85;3.38;;;11.30;99.90;;;;;;4992192;28;20062;-72
2022/11/08 05:11:03;;;;;;;13.93;3.50;;;11.30;99.90;;;;;;4976965;28;20051;-72
2022/11/08 05:13:29;;;;;;;9.57;3.40;;;11.30;99.90;;;;;;4963891;28;20050;-72
2022/11/08 05:15:59;;;;;;;9.10;3.20;;;11.30;99.90;;;;;;4977160;28;20051;-72
2022/11/08 05:18:25;;;;;;;11.75;3.40;;;11.30;99.90;;;;;;4992026;28;20130;-72
2022/11/08 05:23:44;;;;;;;13.40;3.73;;;11.30;99.90;;;;;;4977063;28;20055;-72
2022/11/08 05:26:10;;;;;;;10.30;4.00;;;11.30;99.90;;;;;;4963965;28;20707;-72
2022/11/08 05:28:36;;;;;;;10.95;3.58;;;11.30;99.90;;;;;;4975897;28;20054;-72
2022/11/08 05:31:03;;;;;;;11.57;3.45;;;11.30;99.90;;;;;;4960861;28;20050;-72
2022/11/08 05:33:29;;;;;;;11.48;3.60;;;11.20;99.90;;;;;;4959076;28;20043;-72
2022/11/08 05:35:55;;;;;;;10.35;3.53;;;11.20;99.90;;;;;;4991692;28;20051;-71
2022/11/08 05:38:20;;;;;;;10.65;3.30;;;11.20;99.90;;;;;;4975908;28;20051;-72
2022/11/08 05:40:46;;;;;;;12.80;3.50;;;11.20;99.90;;;;;;4975893;28;20494;-72
2022/11/08 05:43:12;;;;;;;11.63;3.50;;;11.20;99.90;;;;;;4975623;28;20113;-72
2022/11/08 05:45:37;;;;;;;9.98;3.40;;;11.20;99.90;;;;;;4959983;28;20049;-72
2022/11/08 05:48:04;;;;;;;13.57;3.50;;;11.20;99.90;;;;;;4975901;28;20051;-71
2022/11/08 05:50:34;;;;;;;9.18;3.25;;;11.20;99.90;;;;;;4977632;28;20105;-72
2022/11/08 05:53:00;;;;;;;10.80;3.30;;;11.20;99.90;;;;;;4975903;28;20042;-73
2022/11/08 05:55:26;;;;;;;13.55;3.78;;;11.20;99.90;;;;;;4992267;28;20057;-71
2022/11/08 05:57:52;;;;;;;11.95;3.22;;;11.30;99.90;;;;;;4976265;28;20046;-72
2022/11/08 06:00:18;;;;;;;10.02;3.20;;;11.40;99.90;;;;;;4943657;28;20130;-74
2022/11/08 06:02:44;;;;;;;11.90;3.78;;;11.40;99.90;;;;;;4974283;28;20122;-75
2022/11/08 06:05:10;;;;;;;12.20;3.65;;;11.40;99.90;;;;;;4991034;28;20606;-72
2022/11/08 06:07:36;;;;;;;10.48;3.58;;;11.40;99.90;;;;;;4991327;28;20097;-71
2022/11/08 06:10:03;;;;;;;7.85;2.80;;;11.40;99.90;;;;;;4991784;28;20105;-72
2022/11/08 06:12:29;;;;;;;11.00;3.75;;;11.40;99.90;;;;;;4992417;28;20170;-72
2022/11/08 06:14:54;;;;;;;12.82;3.97;;;11.30;99.90;;;;;;4974553;28;20495;-72
2022/11/08 06:17:20;;;;;;;11.90;4.63;;;11.30;99.90;;;;;;4958463;28;20078;-73
2022/11/08 06:19:46;;;;;;;13.70;5.93;;;11.20;99.90;;;;;;4973933;28;20426;-73
2022/11/08 06:22:11;;;;;;;14.10;5.68;;;11.20;99.90;;;;;;4953378;28;20051;-74
2022/11/08 06:24:37;;;;;;;17.60;5.40;;;11.20;99.90;;;;;;4975681;28;20047;-74
2022/11/08 06:27:03;;;;;;;11.90;3.95;;;11.10;99.90;;;;;;4965330;28;20189;-73
2022/11/08 06:29:29;;;;;;;10.48;3.97;;;11.10;99.90;;;;;;4972623;28;20055;-73
2022/11/08 06:31:54;;;;;;;11.05;4.43;;;11.10;99.90;;;;;;4953970;28;20051;-72
2022/11/08 06:34:20;;;;;;;10.20;3.60;;;11.00;99.90;;;;;;4963990;28;20055;-73
2022/11/08 06:36:46;;;;;;;12.20;3.95;;;11.00;99.90;;;;;;4968467;28;20042;-73
2022/11/08 06:39:12;;;;;;;10.43;4.10;;;11.10;99.90;;;;;;4941142;28;20050;-73
2022/11/08 06:41:37;;;;;;;12.27;4.53;;;11.00;99.90;;;;;;4955613;28;20065;-73
2022/11/08 06:44:03;;;;;;;10.27;4.00;;;11.00;99.90;;;;;;4957175;28;20086;-73
2022/11/08 06:46:29;;;;;;;11.55;4.47;;;11.00;99.90;;;;;;4988519;28;20054;-73
2022/11/08 06:48:54;;;;;;;9.45;3.95;;;11.00;99.90;;;;;;4955014;28;20054;-73
2022/11/08 06:51:21;;;;;;;10.82;4.28;;;11.00;99.90;;;;;;4973874;28;20051;-73
2022/11/08 06:53:46;;;;;;;10.95;4.10;;;11.00;99.90;;;;;;4975686;28;20125;-72
2022/11/08 06:56:12;;;;;;;10.23;3.88;;;11.00;99.90;;;;;;4986394;28;20122;-71
2022/11/08 06:58:38;;;;;;;8.00;3.55;;;11.10;99.90;;;;;;4988733;28;20039;-72
2022/11/08 07:01:09;;;;;;;9.35;3.63;;;11.00;99.90;;;;;;4973600;28;20399;-70
2022/11/08 07:03:35;;;;;;;10.45;4.00;;;11.10;99.90;;;;;;4970343;28;20074;-75
2022/11/08 07:06:03;;;;;;;9.00;3.25;;;11.10;99.90;;;;;;4967173;28;20400;-74
2022/11/08 07:08:30;;;;;;;10.55;3.78;;;11.10;99.90;;;;;;4971366;28;20058;-73
2022/11/08 07:10:56;;;;;;;9.13;3.20;;;11.20;99.90;;;;;;4969454;28;20051;-75
2022/11/08 07:13:21;;;;;;;8.50;3.58;;;11.30;99.90;;;;;;4971254;28;20043;-72
2022/11/08 07:15:47;;;;;;;9.52;3.50;;;11.20;99.90;;;;;;4960192;28;20073;-73
2022/11/08 07:18:18;;;;;;;9.80;3.50;;;11.20;99.90;;;;;;4972022;28;20063;-72
2022/11/08 07:20:44;;;;;;;10.50;3.28;;;11.30;99.90;;;;;;4989718;28;20078;-73
2022/11/08 07:23:11;;;;;;;9.68;3.00;;;11.30;99.90;;;;;;4974108;28;20797;-72
2022/11/08 07:25:37;;;;;;;9.85;3.03;;;11.30;99.90;;;;;;4959358;28;20133;-73
2022/11/08 07:28:05;;;;;;;7.07;2.97;;;11.30;99.90;;;;;;4976503;28;20050;-72
2022/11/08 07:30:32;;;;;;;8.52;3.00;;;11.30;99.90;;;;;;5004840;28;20086;-74
2022/11/08 07:32:57;;;;;;;9.55;2.90;;;11.30;99.90;;;;;;4972428;28;20047;-73
2022/11/08 07:35:24;;;;;;;8.93;2.88;;;11.20;99.90;;;;;;4965254;28;20054;-73
2022/11/08 07:37:50;;;;;;;8.95;2.83;;;11.20;99.90;;;;;;4961604;28;20110;-75
2022/11/08 07:40:16;;;;;;;6.82;2.42;;;11.30;99.90;;;;;;4987876;28;20479;-73
2022/11/08 07:42:42;;;;;;;8.40;2.92;;;11.30;99.90;;;;;;4944594;28;20126;-74
2022/11/08 07:45:09;;;;;;;9.77;2.67;;;11.30;99.90;;;;;;4965981;28;20058;-74
2022/11/08 07:47:34;;;;;;;9.60;2.45;;;11.30;99.90;;;;;;4965729;28;20055;-74
2022/11/08 07:50:00;;;;;;;9.20;2.70;;;11.20;99.90;;;;;;4957055;28;20063;-73
2022/11/08 07:52:26;;;;;;;8.48;2.80;;;11.30;99.90;;;;;;4968114;28;20063;-73
2022/11/08 07:54:52;;;;;;;8.02;2.67;;;11.40;99.90;;;;;;4967229;28;20058;-72
2022/11/08 07:57:18;;;;;;;6.95;2.40;;;11.40;99.90;;;;;;4954840;28;20385;-71
2022/11/08 07:59:43;;;;;;;7.88;2.67;;;11.30;99.90;;;;;;4938720;28;20451;-73
2022/11/08 08:02:13;;;;;;;8.18;2.83;;;11.40;99.90;;;;;;4960079;28;20043;-74
2022/11/08 08:04:39;;;;;;;7.60;2.50;;;11.40;99.90;;;;;;4967513;28;20482;-73
2022/11/08 08:07:05;;;;;;;8.57;2.53;;;11.40;99.90;;;;;;4967646;28;20138;-73
2022/11/08 08:09:35;;;;;;;7.45;2.70;;;11.40;99.90;;;;;;4956593;28;20508;-73
2022/11/08 08:12:01;;;;;;;8.88;2.60;;;11.40;99.90;;;;;;4983926;28;20509;-72
2022/11/08 08:14:27;;;;;;;8.20;2.50;;;11.50;99.90;;;;;;4984812;28;20052;-73
2022/11/08 08:16:53;;;;;;;9.13;2.65;;;11.50;99.90;;;;;;4954846;28;20066;-73
2022/11/08 08:19:18;;;;;;;10.70;2.80;;;11.60;99.90;;;;;;4955453;28;20138;-73
2022/11/08 08:21:44;;;;;;;8.63;2.95;;;11.60;99.90;;;;;;4966944;28;20129;-74
2022/11/08 08:24:10;;;;;;;6.50;2.38;;;11.70;99.90;;;;;;4972430;28;20182;-73
2022/11/08 08:26:35;;;;;;;8.65;2.60;;;11.70;99.90;;;;;;4958040;28;20050;-74
2022/11/08 08:29:01;;;;;;;7.13;2.28;;;11.80;99.90;;;;;;4957929;28;20058;-71
2022/11/08 08:31:27;;;;;;;6.43;2.33;;;12.00;99.90;;;;;;4957943;28;20372;-73
2022/11/08 08:33:52;;;;;;;7.35;2.50;;;12.10;99.90;;;;;;4958699;28;20130;-74
2022/11/08 08:36:18;;;;;;;6.78;2.20;;;12.20;99.90;;;;;;4956960;28;20062;-75
2022/11/08 08:38:44;;;;;;;8.43;2.22;;;12.20;99.90;;;;;;4970105;28;20614;-72
2022/11/08 08:41:09;;;;;;;8.05;2.30;;;12.30;99.90;;;;;;4959752;28;20062;-74
2022/11/08 08:43:35;;;;;;;6.72;2.30;;;12.40;99.90;;;;;;4946977;28;20043;-73
2022/11/08 08:46:04;;;;;;;7.10;2.30;;;12.50;99.90;;;;;;4952741;28;20082;-73
2022/11/08 08:48:30;;;;;;;8.05;2.33;;;12.50;99.90;;;;;;4981632;28;20089;-72
2022/11/08 08:50:56;;;;;;;6.15;2.25;;;12.60;99.90;;;;;;4957984;28;20079;-73
2022/11/08 08:53:21;;;;;;;7.50;2.20;;;12.60;99.90;;;;;;4968401;28;20126;-73
2022/11/08 08:55:47;;;;;;;7.20;2.58;;;12.60;99.90;;;;;;4955188;28;20154;-73
2022/11/08 08:58:17;;;;;;;7.07;2.20;;;12.60;99.90;;;;;;4962671;28;20051;-73
2022/11/08 09:00:43;;;;;;;8.35;2.53;;;12.60;99.90;;;;;;4968788;28;20047;-72
2022/11/08 09:03:09;;;;;;;5.57;2.17;;;12.60;99.90;;;;;;4965054;28;20599;-72
2022/11/08 09:05:36;;;;;;;6.20;2.05;;;12.70;99.90;;;;;;4979609;28;20086;-72
2022/11/08 09:08:02;;;;;;;7.05;2.22;;;12.70;99.90;;;;;;4954026;28;20058;-73
2022/11/08 09:10:28;;;;;;;6.15;2.20;;;12.80;99.90;;;;;;4966299;28;20102;-73
2022/11/08 09:12:54;;;;;;;6.60;2.40;;;12.80;99.90;;;;;;4965934;28;20075;-72
2022/11/08 09:15:21;;;;;;;7.50;2.30;;;12.90;99.90;;;;;;4969744;28;20050;-73
2022/11/08 09:17:46;;;;;;;7.22;2.25;;;13.00;99.90;;;;;;4985155;28;20065;-73
2022/11/08 09:20:13;;;;;;;7.03;2.20;;;13.10;99.90;;;;;;4978831;28;20056;-74
2022/11/08 09:22:39;;;;;;;8.00;2.30;;;13.20;99.90;;;;;;4982815;28;20093;-72
2022/11/08 09:25:05;;;;;;;5.95;1.90;;;13.30;99.90;;;;;;4966750;28;20051;-71
2022/11/08 09:27:31;;;;;;;6.75;2.40;;;13.30;99.90;;;;;;4985700;28;20063;-72
2022/11/08 09:29:58;;;;;;;8.15;1.80;;;13.40;99.90;;;;;;4940004;28;20090;-73
2022/11/08 09:32:27;;;;;;;5.68;2.20;;;13.50;99.90;;;;;;4964666;28;20409;-73
2022/11/08 09:34:54;;;;;;;5.53;2.00;;;13.50;99.90;;;;;;4982297;28;20453;-73
2022/11/08 09:37:20;;;;;;;6.60;1.80;;;13.50;99.90;;;;;;4968212;28;20061;-74
2022/11/08 09:39:46;;;;;;;7.72;1.90;;;13.50;99.90;;;;;;4967998;28;20051;-73
2022/11/08 09:42:31;;;;;;;6.45;1.80;;;13.60;99.90;;;;;;4967187;28;20130;-73
2022/11/08 09:45:29;;;;;;;5.50;1.80;;;13.60;99.90;;;;;;4963014;28;20058;-73
2022/11/08 09:48:04;;;;;;;6.70;1.90;;;13.80;99.90;;;;;;4962623;28;20047;-74
2022/11/08 09:50:41;;;;;;;6.07;1.80;;;13.80;99.90;;;;;;4955510;28;20055;-71
2022/11/08 09:53:33;;;;;;;5.93;2.15;;;14.00;99.90;;;;;;4954040;28;20051;-72
2022/11/08 09:56:06;;;;;;;5.22;1.80;;;14.10;99.90;;;;;;4960648;28;20134;-72
2022/11/08 09:58:42;;;;;;;6.35;1.90;;;14.10;99.90;;;;;;4944323;28;20054;-73
2022/11/08 10:01:10;;;;;;;5.65;2.00;;;14.10;99.90;;;;;;4985361;28;20057;-71
2022/11/08 10:03:36;;;;;;;4.80;1.60;;;14.10;99.90;;;;;;4967972;28;20055;-72
2022/11/08 10:06:19;;;;;;;4.97;1.80;;;14.10;99.90;;;;;;4988002;28;20061;-72
2022/11/08 10:08:47;;;;;;;;;;;14.00;99.90;;;;;;4989400;28;20384;-72
2022/11/08 10:11:42;;;;;;;5.75;1.80;;;14.10;99.90;;;;;;4987756;28;19962;-72
2022/11/08 10:14:13;;;;;;;6.43;2.03;;;14.10;99.90;;;;;;4954661;28;20381;-72
2022/11/08 10:16:58;;;;;;;6.28;1.83;;;14.10;99.90;;;;;;4926706;28;20109;-72
2022/11/08 10:19:53;;;;;;;6.45;1.80;;;14.20;99.90;;;;;;4966680;28;20125;-72
2022/11/08 10:22:38;;;;;;;7.38;1.90;;;14.20;99.90;;;;;;4945877;28;20150;-71
2022/11/08 10:25:25;;;;;;;5.88;2.00;;;14.20;99.90;;;;;;4936521;29;20051;-72
2022/11/08 10:27:55;;;;;;;6.10;1.90;;;14.20;99.90;;;;;;4950158;28;20051;-72
2022/11/08 10:30:24;;;;;;;6.40;1.73;;;14.20;99.90;;;;;;4952160;28;20243;-72
2022/11/08 10:32:55;;;;;;;5.65;1.90;;;14.20;99.90;;;;;;4909663;28;20057;-73
2022/11/08 10:36:02;;;;;;;4.47;1.70;;;14.30;99.90;;;;;;4972242;28;20065;-70
2022/11/08 10:38:38;;;;;;;5.32;1.90;;;14.30;99.90;;;;;;4936913;28;20059;-73
2022/11/08 10:41:29;;;;;;;5.78;1.90;;;14.20;99.90;;;;;;4963102;28;20387;-73
2022/11/08 10:44:14;;;;;;;6.13;2.20;;;14.20;99.90;;;;;;4980944;28;20093;-72
2022/11/08 10:46:40;;;;;;;5.90;1.88;;;14.30;99.90;;;;;;4970264;28;20141;-71
2022/11/08 10:49:46;;;;;;;5.90;1.83;;;14.20;99.90;;;;;;4956341;28;20407;-72
2022/11/08 10:52:17;;;;;;;5.22;2.10;;;14.30;99.90;;;;;;4969743;28;20043;-73
2022/11/08 10:54:49;;;;;;;4.60;1.70;;;14.30;99.90;;;;;;4970428;28;20059;-72
2022/11/08 10:57:30;;;;;;;6.15;1.80;;;14.30;99.90;;;;;;4955918;28;20054;-74
2022/11/08 11:00:13;;;;;;;6.00;1.80;;;14.30;99.90;;;;;;4972866;28;20130;-72
2022/11/08 11:02:39;;;;;;;7.25;2.13;;;14.20;99.90;;;;;;4958939;28;20078;-70
2022/11/08 11:05:33;;;;;;;5.90;2.10;;;14.20;99.90;;;;;;4962239;28;20227;-72
2022/11/08 11:07:59;;;;;;;5.85;1.88;;;14.20;99.90;;;;;;4949306;28;20395;-72
2022/11/08 11:10:38;;;;;;;5.68;1.90;;;14.10;99.90;;;;;;4979519;28;20053;-72
2022/11/08 11:13:16;;;;;;;6.82;2.00;;;14.20;99.90;;;;;;4949744;28;20045;-72
2022/11/08 11:15:47;;;;;;;6.10;2.08;;;14.20;99.90;;;;;;4981652;28;20070;-72
2022/11/08 11:18:32;;;;;;;5.97;2.00;;;14.20;99.90;;;;;;4911433;28;20467;-74
2022/11/08 11:21:02;;;;;;;5.63;2.00;;;14.20;99.90;;;;;;4948303;28;20055;-72
2022/11/08 11:23:54;;;;;;;4.78;1.90;;;14.20;99.90;;;;;;4952376;29;20044;-72
2022/11/08 11:26:31;;;;;;;6.85;1.98;;;14.20;99.90;;;;;;4961450;28;20142;-73
2022/11/08 11:29:03;;;;;;;7.03;1.90;;;14.20;99.90;;;;;;4952563;29;20382;-72
2022/11/08 11:31:30;;;;;;;6.65;2.10;;;14.30;99.90;;;;;;4956227;28;20051;-72
2022/11/08 11:33:57;;;;;;;5.90;2.10;;;14.30;99.90;;;;;;4952136;29;20051;-72
2022/11/08 11:36:27;;;;;;;8.05;2.10;;;14.40;99.90;;;;;;4952082;29;20137;-73
2022/11/08 11:39:05;;;;;;;6.03;1.90;;;14.40;99.90;;;;;;4954086;28;20051;-73
2022/11/08 11:41:57;;;;;;;6.38;2.00;;;14.40;99.90;;;;;;4953413;29;20093;-72
2022/11/08 11:44:28;;;;;;;6.65;2.10;;;14.50;99.90;;;;;;4952129;29;20063;-72
2022/11/08 11:47:00;;;;;;;5.70;2.15;;;14.50;99.90;;;;;;4952322;28;20655;-72
2022/11/08 11:49:28;;;;;;;;;;;14.60;99.90;;;;;;4953107;28;20055;-72
2022/11/08 11:51:54;;;;;;;6.72;2.00;;;14.60;99.90;;;;;;4952819;28;19922;-73
2022/11/08 11:54:32;;;;;;;6.10;2.03;;;14.60;99.90;;;;;;4951600;28;20047;-72
2022/11/08 11:57:04;;;;;;;6.28;2.35;;;14.70;99.90;;;;;;4952160;28;20412;-72
2022/11/08 11:59:35;;;;;;;6.00;2.00;;;14.70;99.90;;;;;;4952696;29;20051;-72
2022/11/08 12:02:39;;;;;;;6.95;2.00;;;14.70;99.90;;;;;;4953953;28;20369;-71
2022/11/08 12:05:12;;;;;;;7.55;2.10;;;14.70;99.90;;;;;;4948807;29;20550;-72
2022/11/08 12:08:02;;;;;;;5.97;1.98;;;14.70;99.90;;;;;;4950404;28;20498;-73
2022/11/08 12:11:02;;;;;;;5.50;1.98;;;14.70;99.90;;;;;;4952584;28;20138;-72
2022/11/08 12:13:42;;;;;;;6.28;2.20;;;14.70;99.90;;;;;;4968275;28;20043;-72
2022/11/08 12:16:32;;;;;;;6.03;2.00;;;14.70;99.90;;;;;;4928430;29;20059;-72
2022/11/08 12:19:23;;;;;;;7.18;1.95;;;14.60;99.90;;;;;;4951212;28;20126;-72
2022/11/08 12:22:18;;;;;;;7.18;2.00;;;14.70;99.90;;;;;;4946498;28;20043;-73
2022/11/08 12:25:02;;;;;;;7.53;2.05;;;14.70;99.90;;;;;;4947160;29;20078;-74
2022/11/08 12:27:50;;;;;;;5.88;2.03;;;14.80;99.90;;;;;;4956587;28;20408;-72
2022/11/08 12:30:48;;;;;;;5.55;1.90;;;14.80;99.90;;;;;;4963209;28;20039;-74
2022/11/08 12:33:31;;;;;;;4.97;1.80;;;14.80;99.90;;;;;;4944149;29;20609;-74
2022/11/08 12:36:03;;;;;;;6.95;2.15;;;14.80;99.90;;;;;;4950342;28;20063;-71
2022/11/08 12:38:36;;;;;;;4.70;1.70;;;14.80;99.90;;;;;;4949825;28;20112;-73
2022/11/08 12:41:05;;;;;;;5.90;2.00;;;14.80;99.90;;;;;;4935388;28;20059;-73
2022/11/08 12:44:10;;;;;;;6.53;2.15;;;14.80;99.90;;;;;;4935822;29;20058;-72
2022/11/08 12:46:57;;;;;;;5.30;1.90;;;14.70;99.90;;;;;;4972284;28;20058;-73
2022/11/08 12:49:29;;;;;;;6.75;2.00;;;14.70;99.90;;;;;;4955178;28;20047;-73
2022/11/08 12:52:09;;;;;;;7.13;1.90;;;14.70;99.90;;;;;;4949442;28;20082;-73
2022/11/08 12:54:45;;;;;;;8.10;1.88;;;14.60;99.90;;;;;;4949580;29;20055;-74
2022/11/08 12:57:15;;;;;;;7.30;1.83;;;14.70;99.90;;;;;;4963395;28;20696;-73
2022/11/08 12:59:46;;;;;;;6.15;2.00;;;14.70;99.90;;;;;;4951479;29;20047;-76
2022/11/08 13:02:21;;;;;;;5.57;1.95;;;14.70;99.90;;;;;;4932622;28;20055;-74
2022/11/08 13:04:47;;;;;;;6.13;1.85;;;14.60;99.90;;;;;;4948520;28;20566;-73
2022/11/08 13:07:29;;;;;;;4.95;1.90;;;14.70;99.90;;;;;;4957341;28;20051;-73
2022/11/08 13:10:20;;;;;;;5.03;1.92;;;14.70;99.90;;;;;;4960308;28;20051;-73
2022/11/08 13:13:12;;;;;;;5.88;2.00;;;14.70;99.90;;;;;;4952770;28;20055;-73
2022/11/08 13:16:15;;;;;;;5.53;1.80;;;14.80;99.90;;;;;;4969835;28;20040;-75
2022/11/08 13:18:48;;;;;;;5.90;1.95;;;14.90;99.90;;;;;;4954527;28;20459;-72